Terminal Aerodrome Forecast
Issued by NWS

Home | Current Version | Previous Version | Text Only | Print | Product List | Glossary On
Versions: 1 2 3 4 5 6 7 8 9 10 11 12 13 14 15
000
FTUS43 KDVN 311120
TAFBRL
TAF
KBRL 311120Z 3112/0112 00000KT 5SM BR SKC
      TEMPO 3112/3113 1SM BR SKC
     FM311500 16008KT P6SM SCT035
     FM011000 19004KT 4SM BR SKC=

USA.gov is the U.S. government's official web portal to all federal, state and local government web resources and services.